Time;durP1;ratioP1;P1;durP2;ratioP2;P2;SDS_P1;SDS_P2;PMS_P1;PMS_P2;Temp;Humidity;BMP_temperature;BMP_pressure;BME280_temperature;BME280_humidity;BME280_pressure;Samples;Min_cycle;Max_cycle;Signal;HPM_P1;HPM_P2
2022/01/26 00:00:07;;;;;;;29.55;11.38;;;2.40;99.90;;;;;;5076719;28;20035;-64
2022/01/26 00:08:01;;;;;;;31.27;11.82;;;1.80;99.90;;;;;;5076657;28;20388;-64
2022/01/26 00:10:27;;;;;;;33.58;12.50;;;1.80;99.90;;;;;;5061513;28;20045;-64
2022/01/26 00:12:53;;;;;;;27.40;11.52;;;1.80;99.90;;;;;;5038507;28;20028;-64
2022/01/26 00:15:19;;;;;;;31.98;11.43;;;1.80;99.90;;;;;;5056240;28;20357;-64
2022/01/26 00:17:45;;;;;;;23.50;10.15;;;2.60;99.90;;;;;;5056166;28;20051;-64
2022/01/26 00:20:30;;;;;;;26.00;10.95;;;1.80;99.90;;;;;;5056327;28;20025;-64
2022/01/26 00:23:22;;;;;;;26.77;9.63;;;1.80;99.90;;;;;;5056244;28;20028;-64
2022/01/26 00:26:04;;;;;;;29.80;11.13;;;1.80;99.90;;;;;;5055964;28;20457;-64
2022/01/26 00:28:58;;;;;;;31.00;11.48;;;1.80;99.90;;;;;;5038244;28;20460;-64
2022/01/26 00:38:33;;;;;;;30.92;10.68;;;1.80;99.90;;;;;;5055737;28;20467;-64
2022/01/26 00:39:49;;;;;;;29.20;10.70;;;1.80;99.90;;;;;;5055806;28;20048;-64
2022/01/26 00:42:15;;;;;;;31.77;11.57;;;1.70;99.90;;;;;;5037966;28;20025;-64
2022/01/26 00:44:45;;;;;;;26.30;9.95;;;1.80;99.90;;;;;;5037861;28;20021;-64
2022/01/26 00:47:11;;;;;;;28.38;10.68;;;1.70;99.90;;;;;;5055758;28;20116;-64
2022/01/26 00:49:37;;;;;;;27.52;10.43;;;1.80;99.90;;;;;;5055689;28;20112;-63
2022/01/26 00:52:06;;;;;;;33.85;11.40;;;1.80;99.90;;;;;;5037417;28;20025;-64
2022/01/26 00:54:31;;;;;;;;;;;1.70;99.90;;;;;;5038149;28;20036;-64
2022/01/26 00:56:57;;;;;;;32.03;11.02;;;1.90;99.90;;;;;;5037597;28;19983;-64
2022/01/26 00:59:23;;;;;;;27.95;11.40;;;1.70;99.90;;;;;;5055523;28;20491;-64
2022/01/26 01:01:48;;;;;;;26.98;10.75;;;1.70;99.90;;;;;;5055402;28;20029;-64
2022/01/26 01:04:14;;;;;;;30.02;11.35;;;1.70;99.90;;;;;;5037844;28;20036;-64
2022/01/26 01:06:54;;;;;;;31.15;11.45;;;1.70;99.90;;;;;;5037494;28;20539;-64
2022/01/26 01:09:22;;;;;;;35.20;11.88;;;1.70;99.90;;;;;;5055529;28;20045;-63
2022/01/26 01:11:50;;;;;;;34.83;10.55;;;1.70;99.90;;;;;;5038299;28;20441;-63
2022/01/26 01:14:16;;;;;;;30.05;10.80;;;1.70;99.90;;;;;;5055303;28;20029;-63
2022/01/26 01:16:41;;;;;;;30.17;10.55;;;1.70;99.90;;;;;;5055137;28;20044;-64
2022/01/26 01:25:27;;;;;;;32.50;11.15;;;1.70;99.90;;;;;;4993372;28;20034;-64
2022/01/26 01:33:07;;;;;;;36.13;11.98;;;1.60;99.90;;;;;;5054955;28;20036;-64
2022/01/26 01:35:36;;;;;;;26.67;10.50;;;1.60;99.90;;;;;;5054805;28;20040;-64
2022/01/26 01:38:09;;;;;;;;;;;1.60;99.90;;;;;;5055084;28;20021;-63
2022/01/26 01:40:37;;;;;;;40.97;11.75;;;1.60;99.90;;;;;;5054750;28;19909;-64
2022/01/26 01:43:04;;;;;;;39.77;11.37;;;1.50;99.90;;;;;;5054918;28;20108;-64
2022/01/26 01:45:44;;;;;;;39.03;11.85;;;1.50;99.90;;;;;;5056366;28;20037;-65
2022/01/26 01:48:12;;;;;;;34.20;11.25;;;1.50;99.90;;;;;;5036998;28;20033;-64
2022/01/26 01:50:41;;;;;;;35.40;11.45;;;1.50;99.90;;;;;;5036692;28;20494;-64
2022/01/26 01:53:08;;;;;;;38.08;12.00;;;1.50;99.90;;;;;;5054786;28;20035;-65
2022/01/26 01:55:38;;;;;;;37.42;12.45;;;1.60;99.90;;;;;;5054440;28;20122;-64
2022/01/26 01:58:04;;;;;;;38.35;11.60;;;1.50;99.90;;;;;;5054595;28;20033;-64
2022/01/26 02:00:30;;;;;;;38.58;12.52;;;1.50;99.90;;;;;;5054311;28;20021;-64
2022/01/26 02:02:57;;;;;;;32.03;10.63;;;1.50;99.90;;;;;;5036414;28;20025;-64
2022/01/26 02:05:23;;;;;;;34.80;11.82;;;1.50;99.90;;;;;;5054027;28;20417;-64
2022/01/26 02:07:48;;;;;;;30.55;10.80;;;1.50;99.90;;;;;;5054297;28;20048;-64
2022/01/26 02:10:14;;;;;;;32.22;10.50;;;1.60;99.90;;;;;;5054114;28;20128;-64
2022/01/26 02:12:45;;;;;;;40.00;11.88;;;1.50;99.90;;;;;;5054175;28;20027;-64
2022/01/26 02:15:18;;;;;;;34.83;11.48;;;1.50;99.90;;;;;;5054406;28;20021;-64
2022/01/26 02:55:36;;;;;;;36.55;12.00;;;1.40;99.90;;;;;;5054804;28;20061;-64
2022/01/26 03:00:44;;;;;;;35.88;10.10;;;1.50;99.90;;;;;;5054535;28;20376;-64
2022/01/26 03:03:21;;;;;;;35.90;10.77;;;1.40;99.90;;;;;;5036743;28;20029;-65
2022/01/26 03:06:08;;;;;;;34.42;12.05;;;2.70;99.90;;;;;;5054165;28;20035;-64
2022/01/26 03:08:42;;;;;;;33.95;11.65;;;1.40;99.90;;;;;;5054036;28;20021;-64
2022/01/26 03:11:10;;;;;;;36.92;12.43;;;1.40;99.90;;;;;;5054016;28;20041;-64
2022/01/26 03:13:42;;;;;;;33.92;11.88;;;1.40;99.90;;;;;;5053923;28;20055;-64
2022/01/26 03:16:16;;;;;;;36.75;13.10;;;1.40;99.90;;;;;;5035652;28;20043;-64
2022/01/26 03:18:56;;;;;;;32.92;10.50;;;1.40;99.90;;;;;;5035752;28;20045;-64
2022/01/26 03:21:30;;;;;;;28.58;10.02;;;1.40;99.90;;;;;;5054251;28;20044;-66
2022/01/26 03:34:29;;;;;;;29.08;11.05;;;1.30;99.90;;;;;;5053647;28;20028;-64
2022/01/26 03:36:58;;;;;;;30.40;10.57;;;1.40;99.90;;;;;;5053559;28;20091;-64
2022/01/26 03:39:26;;;;;;;35.10;11.63;;;1.30;99.90;;;;;;5053504;28;20526;-64
2022/01/26 03:42:07;;;;;;;31.33;10.98;;;1.40;99.90;;;;;;5053649;28;20021;-64
2022/01/26 03:44:33;;;;;;;29.20;10.63;;;1.90;99.90;;;;;;5036138;28;20025;-64
2022/01/26 03:47:00;;;;;;;27.05;10.40;;;1.40;99.90;;;;;;5053616;28;20461;-63
2022/01/26 03:49:26;;;;;;;34.63;10.55;;;1.40;99.90;;;;;;5055266;28;20091;-64
2022/01/26 03:51:52;;;;;;;37.95;10.68;;;1.40;99.90;;;;;;5022952;28;20033;-65
2022/01/26 03:54:19;;;;;;;34.35;10.50;;;1.40;99.90;;;;;;5057190;28;20472;-64
2022/01/26 03:56:45;;;;;;;31.98;11.80;;;1.50;99.90;;;;;;5058695;28;20027;-64
2022/01/26 03:59:10;;;;;;;28.13;10.70;;;1.40;99.90;;;;;;5059601;28;20107;-67
2022/01/26 04:01:37;;;;;;;29.23;9.63;;;1.40;99.90;;;;;;5041134;28;20222;-64
2022/01/26 04:04:03;;;;;;;24.00;10.05;;;1.40;99.90;;;;;;5039315;28;20025;-64
2022/01/26 04:06:30;;;;;;;32.65;10.75;;;1.40;99.90;;;;;;5057161;28;20064;-64
2022/01/26 04:08:56;;;;;;;30.15;10.45;;;1.30;99.90;;;;;;5056754;28;20025;-64
2022/01/26 04:11:37;;;;;;;28.73;10.52;;;1.40;99.90;;;;;;5057453;28;20082;-64
2022/01/26 04:14:09;;;;;;;31.45;10.68;;;1.30;99.90;;;;;;5057500;28;20351;-64
2022/01/26 04:16:36;;;;;;;34.13;11.80;;;1.40;99.90;;;;;;5056814;28;20032;-64
2022/01/26 04:19:03;;;;;;;30.35;10.70;;;1.40;99.90;;;;;;5057354;28;20112;-63
2022/01/26 04:22:00;;;;;;;31.88;10.27;;;2.60;99.90;;;;;;5056721;28;20029;-64
2022/01/26 04:27:46;;;;;;;24.27;9.57;;;1.40;99.90;;;;;;5056479;28;20124;-64
2022/01/26 04:29:36;;;;;;;28.65;10.38;;;1.40;99.90;;;;;;5047598;28;20045;-64
2022/01/26 04:32:05;;;;;;;30.80;10.18;;;1.30;99.90;;;;;;5056479;28;20032;-64
2022/01/26 04:34:32;;;;;;;24.50;9.25;;;1.40;99.90;;;;;;5056701;28;20027;-64
2022/01/26 04:39:49;;;;;;;25.83;9.95;;;1.40;99.90;;;;;;5056600;28;20527;-64
2022/01/26 04:42:26;;;;;;;33.72;9.70;;;1.40;99.90;;;;;;5056386;28;20024;-64
2022/01/26 04:45:03;;;;;;;31.75;9.10;;;1.40;99.90;;;;;;5056450;28;20025;-63
2022/01/26 04:47:29;;;;;;;28.55;9.52;;;1.40;99.90;;;;;;5056364;28;20108;-63
2022/01/26 04:49:55;;;;;;;28.88;9.30;;;1.40;99.90;;;;;;5038267;28;20025;-64
2022/01/26 04:52:21;;;;;;;27.92;9.38;;;1.60;99.90;;;;;;5056350;28;20428;-64
2022/01/26 04:54:46;;;;;;;26.45;10.02;;;1.30;99.90;;;;;;5038883;28;20029;-63
2022/01/26 04:57:12;;;;;;;29.48;9.93;;;1.40;99.90;;;;;;5056786;28;20453;-64
2022/01/26 04:59:38;;;;;;;33.30;10.15;;;1.40;99.90;;;;;;5056437;28;20044;-64
2022/01/26 05:02:04;;;;;;;24.38;8.95;;;1.40;99.90;;;;;;5055597;28;20100;-63
2022/01/26 05:04:29;;;;;;;24.75;8.90;;;1.40;99.90;;;;;;5055769;28;20457;-64
2022/01/26 05:06:55;;;;;;;31.83;9.68;;;1.40;99.90;;;;;;5056225;28;20033;-64
2022/01/26 05:09:21;;;;;;;24.52;8.73;;;1.40;99.90;;;;;;5056281;28;20536;-64
2022/01/26 05:11:50;;;;;;;26.52;9.35;;;1.40;99.90;;;;;;5037662;28;20033;-64
2022/01/26 05:14:16;;;;;;;27.98;9.63;;;1.40;99.90;;;;;;5037539;28;20021;-64
2022/01/26 05:16:42;;;;;;;25.80;9.73;;;2.30;99.90;;;;;;5055381;28;20047;-64
2022/01/26 05:19:08;;;;;;;23.95;9.20;;;1.60;99.90;;;;;;5055470;28;20376;-65
2022/01/26 05:21:34;;;;;;;23.20;8.95;;;1.40;99.90;;;;;;5055514;28;20029;-64
2022/01/26 05:24:00;;;;;;;30.70;9.77;;;1.40;99.90;;;;;;5057069;28;20079;-65
2022/01/26 05:26:27;;;;;;;25.67;8.35;;;1.40;99.90;;;;;;5056629;28;20029;-64
2022/01/26 05:28:53;;;;;;;26.67;9.55;;;1.40;99.90;;;;;;5055095;28;20036;-64
2022/01/26 05:31:19;;;;;;;28.08;9.90;;;1.40;99.90;;;;;;5056220;28;20036;-64
2022/01/26 05:33:45;;;;;;;28.65;8.68;;;1.40;99.90;;;;;;5055265;28;20028;-64
2022/01/26 05:36:10;;;;;;;24.30;8.90;;;1.40;99.90;;;;;;5037269;28;20025;-64
2022/01/26 05:38:36;;;;;;;26.98;9.48;;;1.40;99.90;;;;;;5037429;28;20081;-64
2022/01/26 05:41:04;;;;;;;28.10;9.90;;;1.40;99.90;;;;;;5055222;28;20036;-65
2022/01/26 05:43:33;;;;;;;24.63;9.73;;;1.50;99.90;;;;;;5054963;28;20027;-64
2022/01/26 05:46:05;;;;;;;23.60;8.70;;;1.40;99.90;;;;;;5037251;28;20036;-64
2022/01/26 05:48:31;;;;;;;25.50;9.18;;;1.50;99.90;;;;;;5036762;28;20032;-65
2022/01/26 05:51:05;;;;;;;23.38;9.20;;;1.50;99.90;;;;;;5037473;28;20033;-65
2022/01/26 05:53:32;;;;;;;24.10;7.90;;;1.60;99.90;;;;;;5054568;28;20025;-65
2022/01/26 05:55:58;;;;;;;26.42;8.48;;;1.50;99.90;;;;;;5036621;28;20029;-64
2022/01/26 05:58:24;;;;;;;26.45;8.77;;;1.50;99.90;;;;;;5054273;28;20051;-65
2022/01/26 06:00:50;;;;;;;22.27;8.63;;;1.50;99.90;;;;;;5054287;28;20037;-65
2022/01/26 06:03:16;;;;;;;25.15;9.00;;;1.50;99.90;;;;;;5054462;28;20522;-64
2022/01/26 06:05:41;;;;;;;30.42;11.25;;;1.60;99.90;;;;;;5054443;28;20025;-64
2022/01/26 06:08:07;;;;;;;27.08;10.02;;;1.60;99.90;;;;;;5036430;28;20083;-64
2022/01/26 06:10:33;;;;;;;23.67;8.63;;;1.60;99.90;;;;;;5053714;28;20052;-65
2022/01/26 06:12:59;;;;;;;26.48;9.38;;;1.50;99.90;;;;;;5054259;28;20025;-65
2022/01/26 06:15:25;;;;;;;29.20;9.73;;;1.50;99.90;;;;;;5054648;28;20032;-64
2022/01/26 06:17:51;;;;;;;32.95;10.43;;;2.50;99.90;;;;;;5054396;28;20564;-64
2022/01/26 06:20:16;;;;;;;25.90;9.23;;;2.40;99.90;;;;;;5054486;28;20033;-64
2022/01/26 06:22:42;;;;;;;28.95;9.13;;;1.90;99.90;;;;;;5054516;28;20354;-65
2022/01/26 06:25:09;;;;;;;29.70;9.77;;;1.40;99.90;;;;;;5054787;28;20100;-65
2022/01/26 06:27:38;;;;;;;30.95;10.32;;;1.40;99.90;;;;;;5054633;28;20060;-65
2022/01/26 06:30:05;;;;;;;27.80;10.25;;;1.40;99.90;;;;;;5054892;28;20472;-65
2022/01/26 06:32:32;;;;;;;22.73;8.68;;;1.40;99.90;;;;;;5054255;28;20025;-65
2022/01/26 06:34:58;;;;;;;23.98;9.13;;;1.30;99.90;;;;;;5036364;28;20035;-65
2022/01/26 06:37:24;;;;;;;23.30;8.52;;;1.40;99.90;;;;;;5035977;28;20033;-64
2022/01/26 06:39:50;;;;;;;24.30;9.05;;;1.40;99.90;;;;;;5054012;28;20063;-64
2022/01/26 06:42:20;;;;;;;21.95;8.60;;;1.40;99.90;;;;;;5053882;28;20075;-64
2022/01/26 06:44:56;;;;;;;31.60;9.57;;;1.30;99.90;;;;;;5053891;28;20028;-65
2022/01/26 06:49:53;;;;;;;26.20;9.68;;;1.40;99.90;;;;;;5054209;28;20029;-64
2022/01/26 06:52:19;;;;;;;22.75;9.30;;;1.40;99.90;;;;;;5053148;28;20035;-63
2022/01/26 06:54:45;;;;;;;26.77;9.13;;;1.40;99.90;;;;;;5052996;28;20100;-64
2022/01/26 06:57:11;;;;;;;29.42;8.77;;;1.40;99.90;;;;;;5035448;28;20089;-64
2022/01/26 06:59:36;;;;;;;25.67;8.98;;;1.50;99.90;;;;;;5035977;28;20088;-64
2022/01/26 07:02:02;;;;;;;23.48;8.20;;;1.40;99.90;;;;;;5053600;28;20036;-64
2022/01/26 07:04:28;;;;;;;27.40;9.40;;;1.40;99.90;;;;;;5053910;28;20499;-64
2022/01/26 07:06:54;;;;;;;23.83;8.85;;;1.40;99.90;;;;;;5053467;28;20048;-64
2022/01/26 07:09:20;;;;;;;21.52;7.88;;;1.40;99.90;;;;;;5053377;28;20120;-64
2022/01/26 07:11:46;;;;;;;25.00;8.20;;;1.40;99.90;;;;;;5053680;28;20021;-64
2022/01/26 07:14:22;;;;;;;25.92;7.93;;;1.40;99.90;;;;;;5053468;28;20033;-64
2022/01/26 07:22:16;;;;;;;27.55;8.63;;;1.40;99.90;;;;;;5053349;28;20031;-64
2022/01/26 07:24:42;;;;;;;26.75;9.25;;;1.40;99.90;;;;;;5037529;28;20111;-63
2022/01/26 07:27:09;;;;;;;29.90;10.13;;;1.40;99.90;;;;;;5057273;28;20121;-64
2022/01/26 07:29:35;;;;;;;28.48;8.90;;;1.40;99.90;;;;;;5057152;28;20086;-64
2022/01/26 07:32:03;;;;;;;24.88;8.18;;;1.50;99.90;;;;;;5056866;28;20461;-64
2022/01/26 07:34:29;;;;;;;24.45;9.43;;;1.50;99.90;;;;;;5056863;28;20047;-64
2022/01/26 07:36:59;;;;;;;28.13;8.35;;;1.40;99.90;;;;;;5057142;28;20033;-64
2022/01/26 07:39:40;;;;;;;29.02;9.73;;;1.40;99.90;;;;;;5056813;28;20029;-65
2022/01/26 07:42:06;;;;;;;23.63;8.85;;;1.60;99.90;;;;;;5057224;28;20103;-65
2022/01/26 07:44:31;;;;;;;25.23;8.10;;;1.50;99.90;;;;;;5056781;28;20465;-64
2022/01/26 07:46:57;;;;;;;25.17;8.60;;;1.50;99.90;;;;;;5056870;28;20071;-64
2022/01/26 07:49:23;;;;;;;25.08;8.18;;;1.50;99.90;;;;;;5056918;28;20449;-64
2022/01/26 07:51:50;;;;;;;24.20;8.43;;;1.50;99.90;;;;;;5056912;28;20029;-65
2022/01/26 07:54:18;;;;;;;21.20;6.95;;;1.50;99.90;;;;;;5039038;28;20048;-64
2022/01/26 07:56:45;;;;;;;25.02;7.60;;;1.50;99.90;;;;;;5056561;28;20048;-64
2022/01/26 07:59:11;;;;;;;23.75;8.07;;;1.60;99.90;;;;;;5038703;28;20033;-64
2022/01/26 08:01:37;;;;;;;26.15;8.48;;;1.60;99.90;;;;;;5056572;28;20380;-64
2022/01/26 08:04:03;;;;;;;25.35;8.10;;;1.60;99.90;;;;;;5056275;28;20024;-64
2022/01/26 08:06:29;;;;;;;25.75;7.93;;;1.60;99.90;;;;;;5038565;28;20503;-64
2022/01/26 08:08:55;;;;;;;17.70;7.22;;;1.60;99.90;;;;;;5037986;28;20158;-65
2022/01/26 08:11:21;;;;;;;21.10;8.18;;;1.70;99.90;;;;;;5056372;28;20036;-64
2022/01/26 08:13:46;;;;;;;25.15;7.90;;;1.70;99.90;;;;;;5056450;28;20029;-64
2022/01/26 08:16:12;;;;;;;21.45;7.53;;;1.80;99.90;;;;;;5056288;28;20025;-64
2022/01/26 08:18:38;;;;;;;24.65;7.80;;;1.80;99.90;;;;;;5038289;28;20029;-64
2022/01/26 08:21:05;;;;;;;22.25;7.57;;;1.90;99.90;;;;;;5056276;28;20033;-64
2022/01/26 08:23:32;;;;;;;21.30;7.60;;;1.80;99.90;;;;;;5038353;28;20112;-64
2022/01/26 08:25:59;;;;;;;23.20;7.60;;;1.80;99.90;;;;;;5056113;28;20025;-65
2022/01/26 08:28:34;;;;;;;18.02;7.20;;;1.80;99.90;;;;;;5038205;28;20040;-64
2022/01/26 08:31:00;;;;;;;21.45;7.82;;;1.70;99.90;;;;;;5056086;28;20090;-65
2022/01/26 08:33:25;;;;;;;21.13;6.63;;;1.80;99.90;;;;;;5056298;28;20408;-64
2022/01/26 08:35:51;;;;;;;23.60;7.68;;;1.80;99.90;;;;;;5054649;28;20100;-65
2022/01/26 08:38:17;;;;;;;18.13;7.28;;;1.70;99.90;;;;;;5055757;28;20028;-64
2022/01/26 08:40:44;;;;;;;24.25;7.80;;;1.80;99.90;;;;;;5055754;28;20025;-65
2022/01/26 08:43:10;;;;;;;20.27;6.22;;;1.80;99.90;;;;;;5055799;28;20048;-65
2022/01/26 08:45:36;;;;;;;16.33;7.13;;;2.00;99.90;;;;;;5037929;28;20060;-64
2022/01/26 08:48:02;;;;;;;18.25;6.18;;;1.80;99.90;;;;;;5055574;28;20468;-63
2022/01/26 08:50:28;;;;;;;22.17;6.90;;;1.80;99.90;;;;;;5055717;28;20029;-65
2022/01/26 08:52:53;;;;;;;19.30;6.82;;;1.80;99.90;;;;;;5037204;28;20087;-65
2022/01/26 08:55:19;;;;;;;23.92;7.38;;;1.80;99.90;;;;;;5037526;28;20060;-64
2022/01/26 08:57:45;;;;;;;20.77;6.63;;;1.80;99.90;;;;;;5055081;28;20451;-70
2022/01/26 09:00:13;;;;;;;19.40;7.25;;;1.90;99.90;;;;;;5055519;28;20126;-64
2022/01/26 09:02:39;;;;;;;19.27;7.27;;;1.90;99.90;;;;;;5055891;28;20104;-65
2022/01/26 09:05:08;;;;;;;19.75;6.57;;;1.80;99.90;;;;;;5037963;28;20472;-64
2022/01/26 09:07:34;;;;;;;18.92;7.30;;;1.90;99.90;;;;;;5055418;28;20028;-64
2022/01/26 09:10:02;;;;;;;20.20;7.10;;;1.80;99.90;;;;;;5055222;28;20098;-65
2022/01/26 09:12:30;;;;;;;21.00;6.43;;;1.90;99.90;;;;;;5074011;28;20032;-64
2022/01/26 09:15:00;;;;;;;17.27;5.70;;;1.80;99.90;;;;;;5075203;28;20471;-64
2022/01/26 09:17:27;;;;;;;19.20;6.30;;;1.90;99.90;;;;;;5074923;28;20455;-65
2022/01/26 09:19:56;;;;;;;17.40;5.93;;;1.80;99.90;;;;;;5075137;28;20031;-65
2022/01/26 09:22:21;;;;;;;23.25;7.10;;;1.80;99.90;;;;;;5075555;28;20025;-65
2022/01/26 09:24:47;;;;;;;14.70;5.80;;;1.80;99.90;;;;;;5075179;28;20127;-65
2022/01/26 09:27:17;;;;;;;14.10;6.50;;;1.90;99.90;;;;;;5073938;28;20031;-65
2022/01/26 09:29:43;;;;;;;17.52;6.47;;;3.50;99.90;;;;;;5073322;28;20029;-64
2022/01/26 09:32:11;;;;;;;18.35;5.97;;;1.90;99.90;;;;;;5073587;28;20025;-65
2022/01/26 09:34:37;;;;;;;19.20;6.45;;;1.90;99.90;;;;;;5073291;28;20036;-65
2022/01/26 09:37:06;;;;;;;13.68;6.25;;;1.90;99.90;;;;;;5073728;28;20396;-65
2022/01/26 09:39:32;;;;;;;14.88;6.25;;;1.90;99.90;;;;;;5075005;28;20031;-65
2022/01/26 09:41:58;;;;;;;20.35;6.07;;;1.90;99.90;;;;;;5074955;28;20029;-64
2022/01/26 09:44:24;;;;;;;16.45;6.30;;;1.90;99.90;;;;;;5074618;28;20020;-65
2022/01/26 09:47:09;;;;;;;14.85;5.78;;;2.00;99.90;;;;;;5074118;28;20025;-64
2022/01/26 09:49:36;;;;;;;12.05;5.97;;;1.90;99.90;;;;;;5074591;28;20089;-64
2022/01/26 09:52:14;;;;;;;17.75;5.47;;;2.00;99.90;;;;;;5073101;28;20380;-64
2022/01/26 09:54:42;;;;;;;20.15;6.38;;;1.90;99.90;;;;;;5074141;28;20031;-65
2022/01/26 09:57:07;;;;;;;13.50;5.05;;;1.90;99.90;;;;;;5074358;28;20058;-64
2022/01/26 09:59:33;;;;;;;15.10;5.60;;;2.00;99.90;;;;;;5073999;28;20462;-64
2022/01/26 10:02:00;;;;;;;18.92;6.15;;;2.00;99.90;;;;;;5073096;28;20495;-64
2022/01/26 10:04:34;;;;;;;16.50;5.05;;;1.90;99.90;;;;;;5074045;28;20391;-64
2022/01/26 10:06:59;;;;;;;18.15;6.40;;;2.00;99.90;;;;;;5072993;28;20079;-64
2022/01/26 10:17:41;;;;;;;13.98;5.45;;;2.10;99.90;;;;;;5073881;28;20059;-64
2022/01/26 10:20:09;;;;;;;13.93;5.70;;;2.00;99.90;;;;;;5072702;28;20032;-64
2022/01/26 10:22:36;;;;;;;15.73;5.32;;;2.00;99.90;;;;;;5074137;28;20024;-64
2022/01/26 10:25:06;;;;;;;14.93;4.93;;;2.10;99.90;;;;;;5072616;28;20089;-64
2022/01/26 10:27:51;;;;;;;13.90;5.72;;;2.10;99.90;;;;;;5072914;28;20353;-64
2022/01/26 10:30:20;;;;;;;17.05;6.28;;;2.10;99.90;;;;;;5074340;28;20035;-64
2022/01/26 10:32:46;;;;;;;15.20;5.35;;;2.10;99.90;;;;;;5073654;28;20040;-64
2022/01/26 10:35:15;;;;;;;12.73;4.50;;;2.10;99.90;;;;;;5073845;28;20024;-64
2022/01/26 10:37:58;;;;;;;15.80;5.50;;;2.10;99.90;;;;;;5073751;28;20064;-65
2022/01/26 10:40:26;;;;;;;15.43;5.50;;;2.10;99.90;;;;;;5073541;28;20025;-64
2022/01/26 10:43:00;;;;;;;13.63;5.70;;;2.10;99.90;;;;;;5073726;28;20042;-64
2022/01/26 10:45:37;;;;;;;14.82;4.80;;;2.20;99.90;;;;;;5072379;28;20021;-64
2022/01/26 10:53:42;;;;;;;14.27;5.45;;;2.20;99.90;;;;;;5074130;28;20099;-65
2022/01/26 10:56:08;;;;;;;13.52;5.07;;;2.20;99.90;;;;;;5072353;28;20025;-64
2022/01/26 10:58:34;;;;;;;15.88;5.30;;;2.20;99.90;;;;;;5073877;28;20025;-64
2022/01/26 11:01:00;;;;;;;14.65;5.78;;;2.20;99.90;;;;;;5077761;28;20033;-65
2022/01/26 11:03:26;;;;;;;12.45;4.88;;;2.20;99.90;;;;;;5077432;28;20031;-64
2022/01/26 11:05:52;;;;;;;15.38;4.68;;;2.20;99.90;;;;;;5077672;28;20024;-64
2022/01/26 11:08:19;;;;;;;13.23;5.10;;;2.20;99.90;;;;;;5077618;28;20036;-64
2022/01/26 11:10:46;;;;;;;11.40;4.28;;;2.20;99.90;;;;;;5061119;28;20049;-64
2022/01/26 11:13:35;;;;;;;15.63;4.60;;;2.30;99.90;;;;;;5039530;28;20021;-65
2022/01/26 11:16:08;;;;;;;13.77;5.13;;;2.30;99.90;;;;;;5039477;28;20071;-64
2022/01/26 11:18:47;;;;;;;14.93;5.05;;;2.40;99.90;;;;;;5057242;28;20040;-64
2022/01/26 11:21:24;;;;;;;13.25;4.25;;;2.50;99.90;;;;;;5057748;28;20380;-64
2022/01/26 11:23:51;;;;;;;15.15;4.97;;;2.30;99.90;;;;;;5039076;28;20033;-65
2022/01/26 11:26:24;;;;;;;11.88;4.80;;;2.30;99.90;;;;;;5039363;28;20028;-64
2022/01/26 11:28:50;;;;;;;15.93;5.30;;;;;;;;;;5057241;28;20058;-65
2022/01/26 11:31:18;;;;;;;18.65;4.95;;;2.30;99.90;;;;;;5039304;28;20373;-64
2022/01/26 11:33:48;;;;;;;13.93;4.40;;;2.30;99.90;;;;;;5057492;28;20036;-64
2022/01/26 11:36:17;;;;;;;13.07;5.32;;;2.40;99.90;;;;;;5038816;28;20036;-64
2022/01/26 11:47:22;;;;;;;21.05;5.28;;;2.50;99.90;;;;;;5056669;28;20024;-64
2022/01/26 11:49:51;;;;;;;9.30;4.00;;;2.50;99.90;;;;;;5056778;28;20366;-64
2022/01/26 11:52:29;;;;;;;13.43;4.13;;;2.50;99.90;;;;;;5056868;28;20033;-64
2022/01/26 11:54:58;;;;;;;11.50;4.43;;;2.40;99.90;;;;;;5056675;28;20025;-64
2022/01/26 11:57:42;;;;;;;;;;;2.40;99.90;;;;;;5057035;28;20480;-64
2022/01/26 12:00:53;;;;;;;13.80;5.35;;;2.40;99.90;;;;;;5038880;28;19913;-64
2022/01/26 12:03:28;;;;;;;14.38;5.18;;;2.50;99.90;;;;;;5056631;28;20036;-64
2022/01/26 12:05:56;;;;;;;10.95;4.90;;;2.40;99.90;;;;;;5056569;28;20029;-64
2022/01/26 12:08:38;;;;;;;18.27;4.93;;;2.40;99.90;;;;;;5056529;28;20457;-64
2022/01/26 12:11:07;;;;;;;16.45;5.15;;;2.40;99.90;;;;;;5056338;28;20136;-65
2022/01/26 12:13:36;;;;;;;19.00;5.32;;;2.40;99.90;;;;;;5056386;28;20029;-64
2022/01/26 12:16:12;;;;;;;14.30;5.32;;;2.40;99.90;;;;;;5038416;28;20025;-64
2022/01/26 12:18:53;;;;;;;20.60;5.95;;;2.40;99.90;;;;;;5056293;28;20043;-64
2022/01/26 12:35:58;;;;;;;17.75;5.68;;;2.50;99.90;;;;;;5055974;28;20087;-64
2022/01/26 12:43:52;;;;;;;14.10;5.45;;;2.40;99.90;;;;;;5055851;28;20029;-64
2022/01/26 12:46:26;;;;;;;13.93;5.00;;;2.30;99.90;;;;;;5037876;28;20532;-65
2022/01/26 12:48:56;;;;;;;17.17;6.13;;;2.30;99.90;;;;;;5038168;28;20025;-64
2022/01/26 12:51:23;;;;;;;15.65;5.97;;;2.30;99.90;;;;;;5055754;28;20025;-65
2022/01/26 12:53:54;;;;;;;22.73;6.10;;;2.30;99.90;;;;;;5059043;28;20029;-67
2022/01/26 12:56:23;;;;;;;19.65;5.90;;;2.20;99.90;;;;;;5041207;28;20021;-65
2022/01/26 12:58:57;;;;;;;;;;;2.20;99.90;;;;;;5055995;28;20465;-64
2022/01/26 13:01:23;;;;;;;19.92;6.07;;;2.30;99.90;;;;;;5037750;28;19908;-64
2022/01/26 13:03:54;;;;;;;18.83;5.90;;;2.30;99.90;;;;;;5041456;28;20063;-64
2022/01/26 13:06:31;;;;;;;16.00;6.18;;;2.30;99.90;;;;;;5037938;28;20141;-65
2022/01/26 13:09:02;;;;;;;14.52;6.32;;;2.30;99.90;;;;;;5055298;28;20029;-66
2022/01/26 13:11:29;;;;;;;15.85;5.25;;;2.30;99.90;;;;;;5055189;28;20033;-67
2022/01/26 13:14:14;;;;;;;14.27;5.90;;;2.20;99.90;;;;;;5038058;28;20021;-66
2022/01/26 13:16:46;;;;;;;16.15;6.85;;;2.20;99.90;;;;;;5037489;28;20159;-66
2022/01/26 13:19:30;;;;;;;15.48;6.93;;;2.20;99.90;;;;;;5055045;28;20340;-65
2022/01/26 13:35:20;;;;;;;14.18;6.20;;;2.30;99.90;;;;;;5054879;28;20057;-65
2022/01/26 13:52:52;;;;;;;16.23;5.80;;;2.30;99.90;;;;;;5054300;28;20381;-65
2022/01/26 14:00:41;;;;;;;12.43;5.38;;;2.30;99.90;;;;;;5054380;28;19916;-68
2022/01/26 14:03:09;;;;;;;18.77;6.45;;;2.30;99.90;;;;;;5036805;28;20036;-64
2022/01/26 14:05:35;;;;;;;20.35;5.78;;;2.30;99.90;;;;;;5054469;28;20025;-64
2022/01/26 14:08:01;;;;;;;12.82;6.18;;;2.30;99.90;;;;;;5036414;28;20465;-64
2022/01/26 14:10:27;;;;;;;13.55;5.65;;;2.30;99.90;;;;;;5061676;28;20051;-64
2022/01/26 14:12:52;;;;;;;20.20;6.30;;;2.40;99.90;;;;;;5073380;28;20464;-64
2022/01/26 14:15:27;;;;;;;15.38;5.97;;;2.30;99.90;;;;;;5074136;28;20101;-66
2022/01/26 14:18:07;;;;;;;15.63;6.28;;;2.30;99.90;;;;;;5074076;28;20119;-64
2022/01/26 14:23:58;;;;;;;19.70;5.93;;;2.30;99.90;;;;;;5057996;28;20429;-63
2022/01/26 14:26:28;;;;;;;;;;;2.40;99.90;;;;;;5074399;28;20445;-65
2022/01/26 14:28:54;;;;;;;20.13;5.45;;;2.30;99.90;;;;;;5073884;28;19911;-63
2022/01/26 14:31:31;;;;;;;13.50;6.40;;;2.40;99.90;;;;;;5073838;28;20021;-63
2022/01/26 15:30:43;;;;;;;20.90;7.30;;;2.50;99.90;;;;;;5053310;28;20032;-63
2022/01/26 15:40:05;;;;;;;14.80;7.05;;;2.40;99.90;;;;;;5052955;28;20032;-63
2022/01/26 16:16:30;;;;;;;18.33;7.35;;;2.40;99.90;;;;;;5056639;28;20051;-63
2022/01/26 16:21:19;;;;;;;23.85;7.05;;;2.40;99.90;;;;;;5056249;28;20098;-63
2022/01/26 18:17:57;;;;;;;14.68;7.05;;;2.50;99.90;;;;;;5073928;28;20384;-64
2022/01/26 18:50:05;;;;;;;21.27;7.85;;;2.40;99.90;;;;;;5073871;28;20043;-63
2022/01/26 18:52:32;;;;;;;19.63;7.68;;;2.40;99.90;;;;;;5073706;28;20059;-63
2022/01/26 18:54:58;;;;;;;17.25;6.85;;;2.40;99.90;;;;;;5072456;28;20037;-63
2022/01/26 18:57:24;;;;;;;15.85;6.63;;;2.40;99.90;;;;;;5072316;28;20037;-63
2022/01/26 18:59:49;;;;;;;19.92;7.72;;;2.40;99.90;;;;;;5072294;28;20025;-64
2022/01/26 19:02:15;;;;;;;15.68;6.25;;;2.40;99.90;;;;;;5072256;28;20054;-64
2022/01/26 19:04:45;;;;;;;19.92;6.72;;;2.40;99.90;;;;;;5073542;28;20174;-64
2022/01/26 19:07:11;;;;;;;23.77;7.00;;;2.40;99.90;;;;;;5073673;28;20025;-64
2022/01/26 19:09:43;;;;;;;20.15;7.05;;;2.40;99.90;;;;;;5072029;28;20053;-66
2022/01/26 19:12:13;;;;;;;16.05;7.38;;;2.40;99.90;;;;;;5072852;28;20033;-64
2022/01/26 19:14:40;;;;;;;20.55;7.38;;;2.40;99.90;;;;;;5073585;28;20032;-64
2022/01/26 19:17:23;;;;;;;17.45;6.88;;;2.40;99.90;;;;;;5073530;28;20052;-64
2022/01/26 19:27:42;;;;;;;23.15;8.95;;;2.40;99.90;;;;;;5077315;28;20471;-64
2022/01/26 19:44:02;;;;;;;19.85;8.07;;;2.40;99.90;;;;;;5060702;28;20041;-65
2022/01/26 19:46:48;;;;;;;22.83;7.80;;;2.30;99.90;;;;;;5077914;28;20463;-64
2022/01/26 19:52:09;;;;;;;26.25;8.48;;;2.30;99.90;;;;;;5077223;28;20067;-64
2022/01/26 19:54:37;;;;;;;36.75;10.02;;;2.30;99.90;;;;;;5076816;28;20024;-64
2022/01/26 19:57:03;;;;;;;27.27;10.43;;;2.30;99.90;;;;;;5075961;28;20388;-64
2022/01/26 19:59:29;;;;;;;28.52;9.68;;;2.30;99.90;;;;;;5075515;28;20025;-64
2022/01/26 20:01:55;;;;;;;31.77;9.43;;;2.30;99.90;;;;;;5076741;28;20033;-64
2022/01/26 20:04:21;;;;;;;23.50;9.75;;;2.30;99.90;;;;;;5076553;28;20457;-64
2022/01/26 20:06:47;;;;;;;31.45;9.48;;;2.30;99.90;;;;;;5075324;28;20029;-63
2022/01/26 20:09:22;;;;;;;28.92;9.98;;;2.30;99.90;;;;;;5075158;28;20056;-64